createdAt,value
2018-07-06T00:00:58.910Z,5.80
2018-07-06T00:03:39.584Z,4.53
2018-07-06T00:06:19.666Z,4.80
2018-07-06T00:08:59.604Z,4.30
2018-07-06T00:11:39.531Z,5.57
2018-07-06T00:14:19.324Z,5.07
2018-07-06T00:16:59.287Z,7.20
2018-07-06T00:19:39.275Z,4.40
2018-07-06T00:22:13.285Z,5.17
2018-07-06T00:24:53.150Z,4.70
2018-07-06T00:27:32.889Z,5.70
2018-07-06T00:30:12.817Z,4.30
2018-07-06T00:32:52.780Z,4.40
2018-07-06T00:35:32.689Z,4.87
2018-07-06T00:38:12.486Z,4.73
2018-07-06T00:40:52.322Z,4.77
2018-07-06T00:43:32.212Z,5.77
2018-07-06T00:46:12.082Z,3.70
2018-07-06T00:48:52.089Z,3.53
2018-07-06T00:51:31.842Z,3.50
2018-07-06T00:54:12.038Z,2.73
2018-07-06T00:56:51.946Z,3.40
2018-07-06T00:59:31.959Z,2.93
2018-07-06T01:02:12.024Z,3.20
2018-07-06T01:04:51.885Z,4.80
2018-07-06T01:07:31.845Z,3.53
2018-07-06T01:10:11.922Z,3.00
2018-07-06T01:12:57.142Z,3.10
2018-07-06T01:15:37.492Z,3.30
2018-07-06T01:18:18.199Z,3.60
2018-07-06T01:20:58.122Z,3.50
2018-07-06T01:23:38.131Z,3.40
2018-07-06T01:26:18.622Z,3.63
2018-07-06T01:28:59.367Z,3.70
2018-07-06T01:31:39.306Z,3.97
2018-07-06T01:34:19.239Z,3.90
2018-07-06T01:36:58.969Z,4.80
2018-07-06T01:39:39.036Z,4.40
2018-07-06T01:42:19.065Z,4.90
2018-07-06T01:44:58.945Z,5.80
2018-07-06T01:47:38.889Z,4.20
2018-07-06T01:50:18.797Z,3.80
2018-07-06T01:52:58.903Z,4.30
2018-07-06T01:55:38.763Z,4.53
2018-07-06T01:58:18.453Z,4.60
2018-07-06T02:00:58.313Z,5.50
2018-07-06T02:03:38.104Z,5.20
2018-07-06T02:06:18.082Z,5.00
2018-07-06T02:08:58.093Z,5.70
2018-07-06T02:11:38.093Z,5.17
2018-07-06T02:14:18.035Z,5.07
2018-07-06T02:16:57.908Z,7.07
2018-07-06T02:19:37.866Z,5.60
2018-07-06T02:22:17.847Z,6.17
2018-07-06T02:24:57.679Z,6.60
2018-07-06T02:27:37.486Z,6.90
2018-07-06T02:30:17.437Z,7.80
2018-07-06T02:32:57.279Z,7.77
2018-07-06T02:35:37.279Z,6.67
2018-07-06T02:38:17.327Z,11.87
2018-07-06T02:40:57.179Z,8.83
2018-07-06T02:43:37.121Z,8.13
2018-07-06T02:46:17.058Z,9.07
2018-07-06T02:48:57.102Z,8.70
2018-07-06T02:51:37.083Z,7.80
2018-07-06T02:54:16.972Z,8.30
2018-07-06T02:56:56.887Z,8.53
2018-07-06T02:59:36.733Z,7.50
2018-07-06T03:02:16.639Z,8.97
2018-07-06T03:04:56.531Z,8.63
2018-07-06T03:07:36.607Z,9.07
2018-07-06T03:10:16.283Z,9.13
2018-07-06T03:12:55.981Z,8.50
2018-07-06T03:15:35.688Z,9.07
2018-07-06T03:18:15.866Z,8.63
2018-07-06T03:20:55.877Z,8.40
2018-07-06T03:23:35.905Z,9.10
2018-07-06T03:26:16.023Z,8.83
2018-07-06T03:28:55.765Z,9.80
2018-07-06T03:31:35.649Z,9.03
2018-07-06T03:34:15.801Z,8.93
2018-07-06T03:36:55.541Z,14.00
2018-07-06T03:39:29.546Z,11.00
2018-07-06T03:42:09.369Z,9.80
2018-07-06T03:44:49.153Z,10.17
2018-07-06T03:47:29.269Z,9.50
2018-07-06T03:50:09.143Z,10.13
2018-07-06T03:52:49.162Z,10.30
2018-07-06T03:55:29.098Z,9.87
2018-07-06T03:58:09.053Z,10.00
2018-07-06T04:00:49.047Z,9.33
2018-07-06T04:03:29.039Z,8.13
2018-07-06T04:06:08.856Z,9.43
2018-07-06T04:08:48.534Z,9.17
2018-07-06T04:11:28.703Z,8.80
2018-07-06T04:14:08.770Z,9.43
2018-07-06T04:16:48.658Z,8.37
2018-07-06T04:19:28.714Z,8.87
2018-07-06T04:22:08.642Z,8.60
2018-07-06T04:24:48.611Z,9.23
2018-07-06T04:27:28.528Z,10.00
2018-07-06T04:30:08.498Z,9.30
2018-07-06T04:32:48.338Z,10.10
2018-07-06T04:35:28.282Z,8.97
2018-07-06T04:38:08.227Z,10.00
2018-07-06T04:40:48.201Z,8.57
2018-07-06T04:43:28.119Z,9.10
2018-07-06T04:46:08.038Z,8.87
2018-07-06T04:48:47.725Z,9.40
2018-07-06T04:51:27.520Z,8.13
2018-07-06T04:54:07.641Z,7.80
2018-07-06T04:56:47.967Z,9.00
2018-07-06T04:59:28.066Z,9.10
2018-07-06T05:02:07.964Z,9.70
2018-07-06T05:04:47.894Z,9.60
2018-07-06T05:07:27.669Z,10.67
2018-07-06T05:10:07.559Z,10.03
2018-07-06T05:12:47.441Z,9.73
2018-07-06T05:15:27.439Z,9.47
2018-07-06T05:18:07.421Z,9.80
2018-07-06T05:20:47.401Z,10.70
2018-07-06T05:23:27.314Z,9.47
2018-07-06T05:26:07.262Z,9.73
2018-07-06T05:28:47.279Z,10.00
2018-07-06T05:31:27.199Z,9.93
2018-07-06T05:34:07.020Z,9.20
2018-07-06T05:36:47.174Z,10.57
2018-07-06T05:39:27.216Z,9.67
2018-07-06T05:42:07.282Z,10.50
2018-07-06T05:44:47.204Z,9.60
2018-07-06T05:47:27.200Z,10.40
2018-07-06T05:50:07.187Z,9.60
2018-07-06T05:52:47.213Z,9.37
2018-07-06T05:55:26.991Z,11.00
2018-07-06T05:58:07.042Z,8.97
2018-07-06T06:00:46.989Z,8.97
2018-07-06T06:03:26.997Z,8.47
2018-07-06T06:06:06.759Z,7.90
2018-07-06T06:08:34.218Z,8.00
2018-07-06T06:11:02.906Z,8.60
2018-07-06T06:13:31.545Z,7.93
2018-07-06T06:16:00.224Z,7.10
2018-07-06T06:18:28.979Z,7.40
2018-07-06T06:20:57.686Z,7.20
2018-07-06T06:23:26.329Z,8.07
2018-07-06T06:25:54.956Z,8.10
2018-07-06T06:28:23.644Z,6.60
2018-07-06T06:30:52.456Z,6.10
2018-07-06T06:33:21.304Z,8.30
2018-07-06T06:35:50.099Z,6.30
2018-07-06T06:38:18.870Z,6.73
2018-07-06T06:40:47.619Z,6.00
2018-07-06T06:43:16.318Z,5.93
2018-07-06T06:45:45.007Z,6.13
2018-07-06T06:48:13.732Z,6.60
2018-07-06T06:50:42.509Z,6.53
2018-07-06T06:53:11.348Z,6.60
2018-07-06T06:55:40.056Z,6.53
2018-07-06T06:58:08.802Z,8.07
2018-07-06T07:00:37.639Z,6.57
2018-07-06T07:03:06.367Z,6.10
2018-07-06T07:05:35.118Z,7.00
2018-07-06T07:08:03.848Z,6.67
2018-07-06T07:10:32.687Z,7.23
2018-07-06T07:13:01.371Z,7.43
2018-07-06T07:15:30.081Z,8.20
2018-07-06T07:17:58.794Z,7.23
2018-07-06T07:20:27.462Z,7.97
2018-07-06T07:22:56.275Z,7.17
2018-07-06T07:25:24.978Z,7.33
2018-07-06T07:27:53.707Z,7.53
2018-07-06T07:30:22.440Z,7.17
2018-07-06T07:32:51.480Z,7.13
2018-07-06T07:35:20.356Z,7.37
2018-07-06T07:37:49.038Z,7.60
2018-07-06T07:40:17.770Z,6.77
2018-07-06T07:42:46.578Z,7.73
2018-07-06T07:45:15.564Z,7.83
2018-07-06T07:47:44.201Z,7.30
2018-07-06T07:50:12.870Z,7.07
2018-07-06T07:52:52.866Z,6.97
2018-07-06T07:55:21.918Z,6.70
2018-07-06T07:57:50.722Z,6.73
2018-07-06T08:00:19.424Z,7.30
2018-07-06T08:02:47.686Z,7.00
2018-07-06T08:05:16.579Z,7.60
2018-07-06T08:07:45.394Z,6.33
2018-07-06T08:10:14.078Z,6.03
2018-07-06T08:12:47.637Z,5.70
2018-07-06T08:15:16.280Z,5.20
2018-07-06T08:17:44.937Z,4.87
2018-07-06T08:20:13.625Z,3.63
2018-07-06T08:22:42.203Z,3.90
2018-07-06T08:25:10.772Z,3.80
2018-07-06T08:27:39.451Z,4.20
2018-07-06T08:30:08.311Z,4.50
2018-07-06T08:32:37.078Z,4.08
2018-07-06T08:35:17.134Z,4.00
2018-07-06T08:37:57.412Z,3.87
2018-07-06T08:40:26.903Z,3.60
2018-07-06T08:42:57.009Z,4.90
2018-07-06T08:45:26.254Z,4.10
2018-07-06T08:47:55.170Z,4.40
2018-07-06T08:50:24.063Z,4.40
2018-07-06T08:52:53.693Z,4.80
2018-07-06T08:55:22.856Z,4.70
2018-07-06T08:57:52.974Z,4.73
2018-07-06T09:00:21.677Z,5.40
2018-07-06T09:02:50.502Z,5.30
2018-07-06T09:05:18.728Z,4.87
2018-07-06T09:07:47.489Z,6.10
2018-07-06T09:10:16.233Z,5.50
2018-07-06T09:12:45.229Z,5.63
2018-07-06T09:15:13.995Z,6.07
2018-07-06T09:17:42.812Z,5.73
2018-07-06T09:20:11.888Z,6.13
2018-07-06T09:22:40.585Z,6.20
2018-07-06T09:25:09.425Z,5.97
2018-07-06T09:27:38.316Z,6.10
2018-07-06T09:30:06.976Z,6.60
2018-07-06T09:32:35.742Z,6.20
2018-07-06T09:35:04.798Z,7.00
2018-07-06T09:37:33.869Z,5.77
2018-07-06T09:40:02.742Z,6.90
2018-07-06T09:42:31.737Z,7.40
2018-07-06T09:45:00.525Z,7.33
2018-07-06T09:47:29.428Z,7.63
2018-07-06T09:49:58.315Z,8.07
2018-07-06T09:52:27.196Z,8.30
2018-07-06T09:54:56.092Z,9.47
2018-07-06T09:57:24.961Z,8.90
2018-07-06T09:59:53.632Z,8.30
2018-07-06T10:02:22.473Z,7.67
2018-07-06T10:04:51.250Z,7.80
2018-07-06T10:07:19.953Z,8.60
2018-07-06T10:09:48.912Z,8.87
2018-07-06T10:12:17.829Z,9.20
2018-07-06T10:14:46.936Z,9.50
2018-07-06T10:17:15.807Z,9.33
2018-07-06T10:19:44.626Z,10.77
2018-07-06T10:22:13.671Z,10.97
2018-07-06T10:24:42.495Z,11.20
2018-07-06T10:27:11.470Z,12.30
2018-07-06T10:29:54.651Z,12.73
2018-07-06T10:32:28.318Z,13.10
2018-07-06T10:34:57.568Z,13.07
2018-07-06T10:37:26.845Z,12.27
2018-07-06T10:39:55.870Z,11.83
2018-07-06T10:42:24.538Z,11.70
2018-07-06T10:44:53.494Z,11.47
2018-07-06T10:47:22.415Z,13.03
2018-07-06T10:49:51.465Z,13.50
2018-07-06T10:52:20.291Z,13.63
2018-07-06T10:54:48.971Z,15.80
2018-07-06T10:57:17.747Z,16.23
2018-07-06T10:59:46.783Z,14.90
2018-07-06T11:02:15.546Z,14.47
2018-07-06T11:04:44.418Z,14.33
2018-07-06T11:07:13.316Z,14.30
2018-07-06T11:09:42.273Z,15.83
2018-07-06T11:12:11.358Z,17.43
2018-07-06T11:14:40.077Z,17.43
2018-07-06T11:17:09.001Z,15.17
2018-07-06T11:19:37.714Z,14.10
2018-07-06T11:22:06.794Z,13.17
2018-07-06T11:24:35.641Z,13.40
2018-07-06T11:27:04.739Z,15.87
2018-07-06T11:29:33.660Z,14.70
2018-07-06T11:32:02.662Z,13.77
2018-07-06T11:34:31.703Z,14.65
2018-07-06T11:37:00.539Z,11.43
2018-07-06T11:39:29.282Z,11.93
2018-07-06T11:41:58.288Z,12.23
2018-07-06T11:44:27.066Z,9.40
2018-07-06T11:46:55.886Z,9.60
2018-07-06T11:49:24.968Z,11.00
2018-07-06T11:51:53.839Z,11.43
2018-07-06T11:54:22.867Z,11.50
2018-07-06T11:56:51.337Z,13.00
2018-07-06T11:59:19.992Z,13.60
2018-07-06T12:01:48.881Z,12.70
2018-07-06T12:04:17.922Z,10.97
2018-07-06T12:06:46.630Z,7.83
2018-07-06T12:09:15.549Z,6.17
2018-07-06T12:11:44.454Z,5.93
2018-07-06T12:14:13.269Z,9.30
2018-07-06T12:16:42.034Z,11.77
2018-07-06T12:19:10.944Z,11.10
2018-07-06T12:21:39.622Z,13.27
2018-07-06T12:24:08.610Z,9.97
2018-07-06T12:26:37.341Z,7.60
2018-07-06T12:29:06.353Z,8.07
2018-07-06T12:31:34.949Z,9.77
2018-07-06T12:34:03.575Z,10.40
2018-07-06T12:36:32.255Z,12.33
2018-07-06T12:39:01.061Z,12.30
2018-07-06T12:41:29.666Z,13.03
2018-07-06T12:43:58.351Z,13.70
2018-07-06T12:46:27.216Z,10.10
2018-07-06T12:48:56.127Z,11.90
2018-07-06T12:51:24.810Z,9.33
2018-07-06T12:53:53.649Z,11.70
2018-07-06T12:56:22.571Z,13.47
2018-07-06T12:58:51.524Z,11.40
2018-07-06T13:01:20.358Z,11.30
2018-07-06T13:03:49.095Z,10.60
2018-07-06T13:06:18.118Z,12.47
2018-07-06T13:08:46.932Z,12.90
2018-07-06T13:11:15.630Z,14.33
2018-07-06T13:13:44.562Z,15.30
2018-07-06T13:16:13.295Z,19.37
2018-07-06T13:18:42.093Z,17.37
2018-07-06T13:21:11.125Z,18.33
2018-07-06T13:23:39.945Z,17.07
2018-07-06T13:26:08.885Z,16.37
2018-07-06T13:28:37.818Z,17.13
2018-07-06T13:31:06.877Z,17.20
2018-07-06T13:33:35.763Z,15.63
2018-07-06T13:36:04.575Z,13.80
2018-07-06T13:38:33.200Z,13.83
2018-07-06T13:41:01.926Z,14.00
2018-07-06T13:43:30.707Z,13.07
2018-07-06T13:46:00.618Z,13.57
2018-07-06T13:48:29.817Z,14.07
2018-07-06T13:50:58.843Z,13.70
2018-07-06T13:53:27.445Z,13.77
2018-07-06T13:55:56.210Z,13.63
2018-07-06T13:58:25.119Z,12.03
2018-07-06T14:00:54.047Z,11.90
2018-07-06T14:03:22.960Z,11.53
2018-07-06T14:05:51.862Z,10.97
2018-07-06T14:08:20.831Z,10.87
2018-07-06T14:10:49.744Z,11.47
2018-07-06T14:13:18.749Z,11.07
2018-07-06T14:15:47.606Z,11.37
2018-07-06T14:18:16.463Z,9.10
2018-07-06T14:20:45.226Z,8.60
2018-07-06T14:23:14.266Z,9.33
2018-07-06T14:25:42.922Z,9.47
2018-07-06T14:28:11.796Z,9.70
2018-07-06T14:30:40.893Z,8.23
2018-07-06T14:33:09.867Z,7.73
2018-07-06T14:35:38.732Z,6.93
2018-07-06T14:38:07.741Z,8.00
2018-07-06T14:40:36.553Z,7.60
2018-07-06T14:43:05.189Z,9.20
2018-07-06T14:45:34.026Z,9.33
2018-07-06T14:48:02.914Z,8.07
2018-07-06T14:50:31.670Z,7.90
2018-07-06T14:53:00.425Z,7.97
2018-07-06T14:55:29.026Z,6.83
2018-07-06T14:57:57.779Z,7.80
2018-07-06T15:00:26.741Z,8.23
2018-07-06T15:02:55.664Z,7.50
2018-07-06T15:05:24.409Z,7.60
2018-07-06T15:07:53.400Z,6.97
2018-07-06T15:10:22.302Z,7.27
2018-07-06T15:12:50.989Z,6.43
2018-07-06T15:15:19.786Z,5.90
2018-07-06T15:17:48.815Z,5.50
2018-07-06T15:20:17.774Z,5.60
2018-07-06T15:22:46.715Z,6.27
2018-07-06T15:25:15.453Z,6.17
2018-07-06T15:27:44.262Z,6.53
2018-07-06T15:30:12.971Z,5.70
2018-07-06T15:32:42.093Z,5.23
2018-07-06T15:35:11.249Z,5.07
2018-07-06T15:37:42.385Z,5.77
2018-07-06T15:40:12.365Z,4.17
2018-07-06T15:42:41.060Z,4.50
2018-07-06T15:45:09.761Z,3.60
2018-07-06T15:47:38.698Z,4.10
2018-07-06T15:50:07.702Z,3.50
2018-07-06T15:52:36.580Z,4.30
2018-07-06T15:55:05.457Z,4.47
2018-07-06T15:57:34.460Z,3.70
2018-07-06T16:00:03.595Z,3.40
2018-07-06T16:02:32.594Z,3.70
2018-07-06T16:05:01.739Z,5.30
2018-07-06T16:07:30.684Z,5.27
2018-07-06T16:10:00.069Z,5.07
2018-07-06T16:12:28.907Z,4.30
2018-07-06T16:14:57.619Z,4.53
2018-07-06T16:17:27.008Z,4.90
2018-07-06T16:19:55.951Z,4.47
2018-07-06T16:22:24.665Z,3.20
2018-07-06T16:24:53.468Z,3.30
2018-07-06T16:27:22.379Z,4.33
2018-07-06T16:29:51.208Z,4.73
2018-07-06T16:32:20.173Z,4.70
2018-07-06T16:34:49.051Z,4.73
2018-07-06T16:37:17.877Z,4.60
2018-07-06T16:39:46.719Z,6.00
2018-07-06T16:42:15.531Z,5.60
2018-07-06T16:44:44.390Z,5.57
2018-07-06T16:47:13.126Z,6.30
2018-07-06T16:49:41.795Z,5.40
2018-07-06T16:52:10.663Z,5.10
2018-07-06T16:54:39.561Z,5.90
2018-07-06T16:57:08.358Z,5.40
2018-07-06T16:59:37.253Z,5.80
2018-07-06T17:02:06.141Z,5.57
2018-07-06T17:04:34.521Z,7.23
2018-07-06T17:07:02.996Z,6.50
2018-07-06T17:09:32.007Z,7.27
2018-07-06T17:12:00.878Z,7.13
2018-07-06T17:14:29.596Z,7.03
2018-07-06T17:16:58.320Z,7.47
2018-07-06T17:19:27.050Z,7.20
2018-07-06T17:21:55.743Z,7.23
2018-07-06T17:24:24.520Z,7.90
2018-07-06T17:26:53.155Z,7.57
2018-07-06T17:29:22.091Z,7.90
2018-07-06T17:31:50.994Z,8.20
2018-07-06T17:34:19.801Z,7.93
2018-07-06T17:36:48.535Z,9.17
2018-07-06T17:39:17.391Z,13.03
2018-07-06T17:41:46.249Z,21.33
2018-07-06T17:44:16.072Z,13.97
2018-07-06T17:46:44.718Z,8.17
2018-07-06T17:49:13.554Z,5.50
2018-07-06T17:51:42.421Z,5.27
2018-07-06T17:54:11.343Z,4.97
2018-07-06T17:56:40.162Z,10.23
2018-07-06T17:59:09.484Z,4.60
2018-07-06T18:01:38.789Z,4.57
2018-07-06T18:04:07.970Z,5.83
2018-07-06T18:06:36.979Z,5.53
2018-07-06T18:09:06.519Z,5.53
2018-07-06T18:11:35.394Z,5.93
2018-07-06T18:14:04.163Z,6.17
2018-07-06T18:16:32.878Z,7.03
2018-07-06T18:19:01.687Z,8.30
2018-07-06T18:21:30.583Z,9.75
2018-07-06T18:23:59.255Z,9.70
2018-07-06T18:26:28.099Z,9.73
2018-07-06T18:28:57.012Z,7.90
2018-07-06T18:31:25.805Z,7.67
2018-07-06T18:33:54.752Z,4.83
2018-07-06T18:36:23.887Z,4.13
2018-07-06T18:38:53.170Z,3.17
2018-07-06T18:41:24.646Z,2.97
2018-07-06T18:43:54.270Z,3.27
2018-07-06T18:46:22.993Z,3.40
2018-07-06T18:48:54.698Z,3.63
2018-07-06T18:51:23.478Z,3.37
2018-07-06T18:53:52.158Z,4.27
2018-07-06T18:56:20.880Z,2.90
2018-07-06T18:58:49.609Z,3.00
2018-07-06T19:01:18.305Z,3.50
2018-07-06T19:03:47.106Z,3.17
2018-07-06T19:06:16.180Z,2.80
2018-07-06T19:08:45.441Z,2.97
2018-07-06T19:11:14.401Z,2.50
2018-07-06T19:13:43.649Z,3.30
2018-07-06T19:16:12.729Z,2.43
2018-07-06T19:18:41.815Z,2.47
2018-07-06T19:21:10.941Z,2.57
2018-07-06T19:23:39.962Z,3.10
2018-07-06T19:26:08.993Z,2.50
2018-07-06T19:28:37.717Z,3.27
2018-07-06T19:31:06.583Z,2.73
2018-07-06T19:33:35.385Z,3.60
2018-07-06T19:36:04.180Z,2.77
2018-07-06T19:38:33.149Z,2.87
2018-07-06T19:41:02.314Z,3.40
2018-07-06T19:43:31.403Z,3.23
2018-07-06T19:46:00.152Z,2.90
2018-07-06T19:48:29.148Z,3.80
2018-07-06T19:50:57.576Z,3.00
2018-07-06T19:53:26.245Z,3.00
2018-07-06T19:55:55.189Z,3.37
2018-07-06T19:58:24.187Z,3.20
2018-07-06T20:00:53.075Z,3.30
2018-07-06T20:03:22.049Z,3.60
2018-07-06T20:05:51.263Z,3.50
2018-07-06T20:08:20.030Z,3.57
2018-07-06T20:10:49.053Z,3.60
2018-07-06T20:13:17.950Z,3.17
2018-07-06T20:15:46.646Z,3.70
2018-07-06T20:18:15.319Z,3.37
2018-07-06T20:20:44.051Z,3.23
2018-07-06T20:23:12.893Z,3.90
2018-07-06T20:25:41.750Z,4.00
2018-07-06T20:28:10.353Z,4.00
2018-07-06T20:30:39.494Z,4.60
2018-07-06T20:33:08.362Z,5.60
2018-07-06T20:35:37.050Z,3.73
2018-07-06T20:38:05.888Z,3.63
2018-07-06T20:40:34.653Z,4.13
2018-07-06T20:43:03.513Z,3.20
2018-07-06T20:45:32.447Z,4.60
2018-07-06T20:48:01.503Z,3.57
2018-07-06T20:50:30.624Z,2.97
2018-07-06T20:52:59.373Z,3.67
2018-07-06T20:55:28.066Z,3.60
2018-07-06T20:57:56.677Z,2.97
2018-07-06T21:00:25.367Z,3.20
2018-07-06T21:02:54.023Z,3.07
2018-07-06T21:05:22.746Z,3.20
2018-07-06T21:07:51.421Z,3.17
2018-07-06T21:10:23.797Z,2.93
2018-07-06T21:12:52.586Z,4.03
2018-07-06T21:15:21.270Z,3.73
2018-07-06T21:17:49.935Z,3.53
2018-07-06T21:20:18.628Z,3.17
2018-07-06T21:22:47.361Z,3.10
2018-07-06T21:25:16.025Z,2.63
2018-07-06T21:27:44.774Z,2.83
2018-07-06T21:30:13.528Z,2.60
2018-07-06T21:32:42.402Z,3.00
2018-07-06T21:35:10.741Z,2.73
2018-07-06T21:37:39.636Z,2.67
2018-07-06T21:40:08.561Z,2.23
2018-07-06T21:42:37.172Z,2.97
2018-07-06T21:45:06.130Z,3.67
2018-07-06T21:47:34.727Z,2.77
2018-07-06T21:50:03.354Z,3.23
2018-07-06T21:52:32.383Z,3.20
2018-07-06T21:55:01.139Z,3.87
2018-07-06T21:57:29.834Z,5.03
2018-07-06T21:59:58.923Z,3.43
2018-07-06T22:02:27.842Z,3.10
2018-07-06T22:04:56.483Z,3.03
2018-07-06T22:07:25.109Z,3.43
2018-07-06T22:09:53.893Z,3.70
2018-07-06T22:12:22.546Z,3.30
2018-07-06T22:14:51.283Z,4.13
2018-07-06T22:17:19.893Z,3.53
2018-07-06T22:19:48.623Z,3.70
2018-07-06T22:22:17.654Z,4.57
2018-07-06T22:24:46.413Z,4.60
2018-07-06T22:27:15.423Z,4.60
2018-07-06T22:29:44.243Z,5.00
2018-07-06T22:32:12.975Z,5.07
2018-07-06T22:34:41.778Z,4.20
2018-07-06T22:37:10.841Z,4.50
2018-07-06T22:39:39.463Z,4.70
2018-07-06T22:42:08.415Z,4.30
2018-07-06T22:44:37.233Z,5.53
2018-07-06T22:47:06.247Z,5.10
2018-07-06T22:49:34.883Z,5.23
2018-07-06T22:52:03.743Z,5.90
2018-07-06T22:54:32.503Z,4.63
2018-07-06T22:57:01.538Z,5.20
2018-07-06T22:59:30.247Z,5.70
2018-07-06T23:01:58.901Z,5.60
2018-07-06T23:04:27.754Z,5.57
2018-07-06T23:06:56.691Z,5.27
2018-07-06T23:09:25.579Z,4.87
2018-07-06T23:11:54.273Z,4.93
2018-07-06T23:14:23.081Z,5.20
2018-07-06T23:16:52.045Z,4.93
2018-07-06T23:19:20.524Z,4.80
2018-07-06T23:21:49.303Z,5.33
2018-07-06T23:24:18.105Z,4.83
2018-07-06T23:26:46.997Z,5.23
2018-07-06T23:29:15.913Z,5.33
2018-07-06T23:31:44.749Z,4.77
2018-07-06T23:34:13.623Z,6.40
2018-07-06T23:36:42.490Z,5.03
2018-07-06T23:39:11.101Z,5.40
2018-07-06T23:41:39.796Z,5.23
2018-07-06T23:44:08.511Z,5.50
2018-07-06T23:46:37.130Z,5.10
2018-07-06T23:49:06.163Z,5.50
2018-07-06T23:51:34.992Z,5.43
2018-07-06T23:54:03.865Z,5.50
2018-07-06T23:56:32.766Z,5.50
2018-07-06T23:59:01.679Z,6.00
